Time;durP1;ratioP1;P1;durP2;ratioP2;P2;SDS_P1;SDS_P2;PMS_P1;PMS_P2;Temp;Humidity;BMP_temperature;BMP_pressure;BME280_temperature;BME280_humidity;BME280_pressure;Samples;Min_cycle;Max_cycle;Signal;HPM_P1;HPM_P2
2021/05/02 00:01:14;;;;;;;39.65;32.45;;;;;;;10.77;84.42;95104.75;6285468;22;20011;-84
2021/05/02 00:03:40;;;;;;;40.30;32.20;;;;;;;11.02;83.87;95139.13;6285683;22;20444;-84
2021/05/02 00:06:07;;;;;;;38.13;30.55;;;;;;;11.00;84.46;95138.91;6285716;22;19999;-84
2021/05/02 00:08:34;;;;;;;36.42;30.80;;;;;;;10.72;84.72;95098.81;6285696;22;20390;-84
2021/05/02 00:11:01;;;;;;;36.72;30.80;;;;;;;10.66;84.88;95094.59;6285307;22;20279;-84
2021/05/02 00:13:26;;;;;;;35.05;29.30;;;;;;;10.38;85.32;95048.31;6285480;22;20006;-84
2021/05/02 00:15:51;;;;;;;34.88;29.67;;;;;;;10.59;84.95;95065.16;6285469;22;20350;-84
2021/05/02 00:18:21;;;;;;;38.05;30.75;;;;;;;10.71;84.37;95075.59;6285234;22;20018;-84
2021/05/02 00:20:47;;;;;;;38.65;32.42;;;;;;;10.53;85.57;95054.28;6285439;22;20385;-84
2021/05/02 00:23:12;;;;;;;35.03;30.83;;;;;;;10.81;84.58;95073.38;6312618;22;19999;-84
2021/05/02 00:25:38;;;;;;;38.58;31.67;;;;;;;10.68;85.16;95041.25;6285779;22;20303;-84
2021/05/02 00:28:08;;;;;;;38.47;32.03;;;;;;;10.75;85.39;95054.34;6312562;22;20009;-84
2021/05/02 00:30:34;;;;;;;40.53;32.33;;;;;;;10.79;85.25;95048.69;6285324;22;20049;-84
2021/05/02 00:33:00;;;;;;;39.35;32.08;;;;;;;10.64;85.01;95042.72;6285292;22;20003;-85
2021/05/02 00:35:26;;;;;;;39.63;32.40;;;;;;;10.67;84.29;95056.06;6312169;22;20082;-84
2021/05/02 00:37:53;;;;;;;38.30;32.05;;;;;;;10.90;84.48;95103.06;6285376;22;20035;-85
2021/05/02 00:40:29;;;;;;;45.03;33.40;;;;;;;10.62;85.21;95053.34;6313053;22;20374;-84
2021/05/02 00:42:58;;;;;;;40.70;33.22;;;;;;;10.89;85.30;95098.84;6285632;22;19999;-85
2021/05/02 00:45:26;;;;;;;42.85;32.58;;;;;;;10.61;85.36;95043.72;6285154;22;20415;-85
2021/05/02 00:48:16;;;;;;;42.55;33.88;;;;;;;10.84;85.78;95060.81;6285179;22;20046;-84
2021/05/02 00:50:57;;;;;;;43.60;34.28;;;;;;;10.98;85.96;95087.03;6285632;22;20006;-84
2021/05/02 00:53:35;;;;;;;41.60;33.28;;;;;;;10.88;85.65;95077.63;6285548;22;20007;-84
2021/05/02 00:56:13;;;;;;;42.78;34.53;;;;;;;10.84;85.71;95072.41;6285260;22;20275;-84
2021/05/02 00:58:55;;;;;;;42.13;33.88;;;;;;;10.88;85.96;95064.03;6312298;22;20007;-84
2021/05/02 01:01:22;;;;;;;41.95;32.83;;;;;;;10.59;85.53;95024.44;6284969;22;20439;-84
2021/05/02 01:03:50;;;;;;;38.10;32.40;;;;;;;10.81;85.41;95046.22;6312305;22;20006;-84
2021/05/02 01:06:21;;;;;;;44.47;34.53;;;;;;;10.27;85.94;94970.31;6285327;22;20003;-84
2021/05/02 01:08:50;;;;;;;43.78;34.33;;;;;;;10.43;85.70;94987.88;6285165;22;20007;-85
2021/05/02 01:11:17;;;;;;;40.45;33.22;;;;;;;10.55;85.49;94996.81;6284987;22;20285;-85
2021/05/02 01:13:55;;;;;;;43.25;34.17;;;;;;;10.49;85.68;94983.19;6285093;22;20018;-84
2021/05/02 01:16:23;;;;;;;48.50;36.70;;;;;;;10.56;85.52;94984.72;6285035;22;20031;-85
2021/05/02 01:18:49;;;;;;;51.00;38.70;;;;;;;10.28;85.48;94943.91;6285048;22;20030;-85
2021/05/02 01:21:17;;;;;;;49.40;37.42;;;;;;;10.72;86.01;95013.88;6312068;22;19999;-84
2021/05/02 01:23:42;;;;;;;51.33;39.13;;;;;;;10.42;86.35;94962.72;6285045;22;20082;-85
2021/05/02 01:26:08;;;;;;;48.05;38.58;;;;;;;10.46;86.07;94971.34;6284825;22;20034;-84
2021/05/02 01:28:36;;;;;;;51.08;39.63;;;;;;;10.47;86.49;94972.84;6312188;22;20302;-85
2021/05/02 01:31:02;;;;;;;51.65;39.75;;;;;;;10.67;85.68;94996.34;6284863;22;20149;-85
2021/05/02 01:33:28;;;;;;;50.65;39.88;;;;;;;10.60;86.72;94974.34;6285129;22;20364;-85
2021/05/02 01:35:55;;;;;;;47.20;38.08;;;;;;;10.23;86.14;94913.56;6285029;22;20082;-85
2021/05/02 01:38:23;;;;;;;46.13;36.92;;;;;;;10.92;85.28;94985.75;6284941;22;20003;-85
2021/05/02 01:40:48;;;;;;;45.80;35.13;;;;;;;10.47;85.49;94912.38;6312035;22;20027;-85
2021/05/02 01:43:13;;;;;;;48.72;36.85;;;;;;;10.60;85.64;94928.94;6284725;22;20034;-85
2021/05/02 01:45:39;;;;;;;47.67;36.15;;;;;;;10.80;85.82;94973.41;6285922;22;20063;-85
2021/05/02 01:48:06;;;;;;;51.05;37.30;;;;;;;10.47;85.55;94925.94;6312203;22;20002;-85
2021/05/02 01:50:46;;;;;;;48.13;35.22;;;;;;;10.38;86.14;94910.63;6311152;22;20007;-84
2021/05/02 01:53:14;;;;;;;43.45;36.63;;;;;;;10.55;86.38;94920.81;6281077;22;20010;-85
2021/05/02 01:55:40;;;;;;;47.50;37.42;;;;;;;10.48;86.79;94916.56;6285544;22;20129;-84
2021/05/02 01:58:08;;;;;;;49.10;37.78;;;;;;;10.77;86.50;94949.97;6284838;22;20010;-85
2021/05/02 02:00:41;;;;;;;52.30;38.20;;;;;;;10.63;85.69;94911.66;6284701;22;20031;-85
2021/05/02 02:03:08;;;;;;;51.83;36.95;;;;;;;10.48;85.50;94886.72;6284941;22;20322;-85
2021/05/02 02:05:36;;;;;;;51.45;38.35;;;;;;;10.78;85.87;94914.16;6284723;22;20363;-84
2021/05/02 02:08:04;;;;;;;52.28;36.90;;;;;;;10.59;85.06;94881.28;6284718;22;20007;-84
2021/05/02 02:10:31;;;;;;;54.20;38.58;;;;;;;10.85;84.57;94883.03;6285384;22;20328;-84
2021/05/02 02:12:57;;;;;;;47.38;36.28;;;;;;;10.68;83.91;94828.75;6286979;22;19999;-83
2021/05/02 02:15:26;;;;;;;51.85;36.60;;;;;;;10.98;83.25;94856.13;6286930;22;20007;-84
2021/05/02 02:17:53;;;;;;;50.25;37.30;;;;;;;10.65;84.63;94821.56;6286641;22;20033;-84
2021/05/02 02:20:19;;;;;;;50.30;37.83;;;;;;;10.98;84.24;94862.31;6286740;22;20006;-84
2021/05/02 02:22:45;;;;;;;50.65;37.35;;;;;;;11.10;83.84;94871.19;6286585;22;20007;-85
2021/05/02 02:25:11;;;;;;;49.53;38.33;;;;;;;11.10;84.15;94873.16;6286708;22;20271;-85
2021/05/02 02:27:38;;;;;;;50.05;38.28;;;;;;;10.72;84.42;94835.41;6286607;22;20138;-85
2021/05/02 02:30:11;;;;;;;53.30;37.83;;;;;;;10.84;85.21;94879.59;6286313;22;20007;-85
2021/05/02 02:32:47;;;;;;;50.45;37.78;;;;;;;10.78;85.08;94878.13;6285606;22;20005;-85
2021/05/02 02:35:18;;;;;;;50.63;39.58;;;;;;;10.50;85.50;94848.97;6313790;22;20010;-85
2021/05/02 02:37:45;;;;;;;52.28;38.97;;;;;;;10.35;85.75;94819.34;6286564;22;19999;-85
2021/05/02 02:40:14;;;;;;;55.38;40.33;;;;;;;10.70;86.75;94870.44;6314339;22;20010;-85
2021/05/02 02:42:43;;;;;;;54.75;40.20;;;;;;;10.78;86.18;94862.56;6286639;22;20008;-85
2021/05/02 02:45:09;;;;;;;56.30;42.20;;;;;;;10.39;86.09;94817.16;6286506;22;20011;-84
2021/05/02 02:47:36;;;;;;;55.65;42.47;;;;;;;10.68;86.22;94847.75;6286706;22;20114;-85
2021/05/02 02:50:07;;;;;;;56.97;43.03;;;;;;;10.71;86.85;94833.94;6286406;22;20045;-85
2021/05/02 02:52:42;;;;;;;59.28;41.97;;;;;;;10.39;86.12;94783.84;6286385;22;20314;-85
2021/05/02 02:55:10;;;;;;;50.50;40.20;;;;;;;10.31;86.06;94767.28;6313487;22;20003;-85
2021/05/02 02:57:58;;;;;;;51.13;39.47;;;;;;;10.48;86.27;94780.84;6285989;22;20007;-85
2021/05/02 03:00:29;;;;;;;49.35;39.28;;;;;;;10.43;86.20;94782.34;6286185;22;20058;-85
2021/05/02 03:02:55;;;;;;;;;;;;;;;10.72;86.47;94805.53;6286548;22;20014;-85
2021/05/02 03:05:23;;;;;;;51.00;39.10;;;;;;;10.68;85.90;94801.59;6287061;22;20246;-85
2021/05/02 03:07:51;;;;;;;49.30;37.80;;;;;;;10.32;85.22;94747.06;6286054;22;20068;-85
2021/05/02 03:10:16;;;;;;;49.17;37.88;;;;;;;10.36;86.15;94757.69;6286165;22;20089;-85
2021/05/02 03:12:43;;;;;;;47.63;37.80;;;;;;;10.61;85.82;94796.66;6285970;22;20030;-85
2021/05/02 03:15:10;;;;;;;48.95;37.97;;;;;;;10.60;86.11;94779.63;6286103;22;20078;-85
2021/05/02 03:17:36;;;;;;;49.10;37.85;;;;;;;10.04;86.05;94700.19;6286029;22;20003;-85
2021/05/02 03:20:06;;;;;;;49.58;38.65;;;;;;;10.58;85.79;94781.34;6286131;22;20010;-85
2021/05/02 03:22:39;;;;;;;50.00;38.63;;;;;;;10.37;86.57;94757.19;6285260;22;20099;-85
2021/05/02 03:25:08;;;;;;;50.28;38.70;;;;;;;10.33;87.16;94742.38;6314034;22;20003;-85
2021/05/02 03:27:43;;;;;;;55.47;38.53;;;;;;;10.28;87.88;94707.84;6286067;22;19999;-85
2021/05/02 03:30:10;;;;;;;51.05;37.85;;;;;;;10.10;87.00;94690.81;6285814;22;20007;-85
2021/05/02 03:32:37;;;;;;;49.10;38.60;;;;;;;10.41;87.96;94744.09;6313020;22;19995;-85
2021/05/02 03:35:07;;;;;;;51.15;38.97;;;;;;;10.40;88.04;94747.31;6285945;22;19999;-84
2021/05/02 03:37:35;;;;;;;48.22;37.97;;;;;;;10.31;87.57;94718.44;6285893;22;20006;-84
2021/05/02 03:40:01;;;;;;;50.50;38.17;;;;;;;10.36;87.74;94741.41;6313085;22;20006;-84
2021/05/02 03:42:27;;;;;;;44.92;33.42;;;;;;;10.67;87.25;94781.09;6285846;22;20015;-85
2021/05/02 03:44:53;;;;;;;49.17;37.17;;;;;;;10.55;89.10;94774.22;6285820;22;20409;-85
2021/05/02 03:47:18;;;;;;;46.13;35.83;;;;;;;10.20;87.43;94723.84;6312582;22;20278;-85
2021/05/02 03:49:44;;;;;;;45.80;35.55;;;;;;;10.23;88.11;94712.78;6285492;22;20261;-85
2021/05/02 03:52:13;;;;;;;48.58;36.58;;;;;;;10.65;88.69;94769.97;6285921;22;20003;-85
2021/05/02 03:54:38;;;;;;;44.20;34.53;;;;;;;10.30;86.76;94706.13;6285947;22;20003;-84
2021/05/02 03:57:04;;;;;;;45.30;35.58;;;;;;;10.25;87.98;94704.16;6285723;22;20245;-85
2021/05/02 03:59:30;;;;;;;47.75;36.80;;;;;;;10.31;88.54;94710.31;6285805;22;20003;-85
2021/05/02 04:02:01;;;;;;;47.92;37.97;;;;;;;10.47;88.73;94728.56;6285335;22;20011;-84
2021/05/02 04:04:28;;;;;;;51.25;36.80;;;;;;;10.40;88.71;94742.63;6285489;22;20033;-85
2021/05/02 04:07:02;;;;;;;50.55;37.72;;;;;;;10.20;88.47;94707.59;6285570;22;20003;-85
2021/05/02 04:09:28;;;;;;;54.78;40.25;;;;;;;10.39;89.60;94754.72;6311531;22;20064;-84
2021/05/02 04:11:54;;;;;;;55.35;38.45;;;;;;;10.56;89.93;94776.44;6285483;22;20000;-85
2021/05/02 04:14:20;;;;;;;50.50;37.05;;;;;;;10.26;90.52;94711.06;6312603;22;20132;-84
2021/05/02 04:17:00;;;;;;;46.78;34.95;;;;;;;10.32;90.05;94725.34;6312636;22;20052;-85
2021/05/02 04:19:26;;;;;;;49.23;36.43;;;;;;;10.45;91.75;94749.28;6285625;22;20306;-85
2021/05/02 04:21:52;;;;;;;50.53;37.47;;;;;;;10.74;91.47;94784.03;6285690;22;20295;-85
2021/05/02 04:24:17;;;;;;;48.95;37.15;;;;;;;10.89;91.16;94766.75;6312307;22;20007;-85
2021/05/02 04:26:48;;;;;;;52.63;39.13;;;;;;;10.51;91.39;94736.44;6285276;22;20052;-85
2021/05/02 04:29:13;;;;;;;;;;;;;;;10.86;91.05;94768.47;6285981;22;20007;-85
2021/05/02 04:31:39;;;;;;;52.15;38.45;;;;;;;10.39;90.39;94673.31;6285431;22;20329;-85
2021/05/02 04:34:05;;;;;;;61.53;42.03;;;;;;;10.44;90.74;94669.84;6285176;22;20003;-84
2021/05/02 04:36:31;;;;;;;54.10;38.92;;;;;;;10.66;89.85;94676.47;6312401;22;20086;-85
2021/05/02 04:38:57;;;;;;;51.78;38.47;;;;;;;10.64;88.22;94659.91;6285318;22;19999;-84
2021/05/02 04:41:22;;;;;;;53.60;40.88;;;;;;;10.34;88.78;94649.63;6285110;22;20007;-85
2021/05/02 04:43:48;;;;;;;55.42;40.40;;;;;;;10.44;90.72;94702.41;6312440;22;20075;-85
2021/05/02 04:46:13;;;;;;;55.10;40.78;;;;;;;10.49;90.67;94703.63;6312185;22;20006;-84
2021/05/02 04:48:40;;;;;;;57.08;41.25;;;;;;;10.62;90.21;94695.72;6285221;22;20007;-85
2021/05/02 04:51:06;;;;;;;51.47;38.92;;;;;;;10.29;89.71;94657.78;6285022;22;20386;-85
2021/05/02 04:53:32;;;;;;;54.20;40.38;;;;;;;10.48;90.88;94707.56;6285432;22;20003;-85
2021/05/02 04:55:58;;;;;;;59.85;41.42;;;;;;;10.56;91.49;94724.84;6285478;22;20077;-85
2021/05/02 04:58:23;;;;;;;60.28;41.92;;;;;;;10.40;91.19;94722.91;6285185;22;20352;-85
2021/05/02 05:00:49;;;;;;;61.05;43.45;;;;;;;10.56;92.47;94753.97;6284938;22;19995;-85
2021/05/02 05:03:14;;;;;;;60.33;42.65;;;;;;;10.65;92.13;94772.69;6284871;22;20007;-86
2021/05/02 05:05:39;;;;;;;55.03;42.42;;;;;;;10.63;92.30;94813.19;6285111;22;20061;-86
2021/05/02 05:08:05;;;;;;;62.60;43.63;;;;;;;10.62;93.23;94806.28;6312621;22;20004;-86
2021/05/02 05:10:31;;;;;;;65.95;45.45;;;;;;;10.64;92.83;94774.69;6285011;22;20030;-86
2021/05/02 05:12:56;;;;;;;73.30;51.53;;;;;;;10.65;91.99;94761.84;6285227;22;20003;-85
2021/05/02 05:15:22;;;;;;;63.78;46.03;;;;;;;10.60;92.85;94743.59;6312110;22;20010;-85
2021/05/02 05:17:48;;;;;;;56.97;41.38;;;;;;;11.08;92.32;94743.25;6285369;22;20010;-85
2021/05/02 05:20:13;;;;;;;41.33;32.53;;;;;;;10.82;89.45;94634.19;6285179;22;20379;-85
2021/05/02 05:22:39;;;;;;;50.75;38.97;;;;;;;11.29;89.58;94692.00;6284876;22;19999;-85
2021/05/02 05:25:05;;;;;;;50.40;40.92;;;;;;;10.76;90.91;94645.09;6312184;22;20022;-85
2021/05/02 05:27:31;;;;;;;49.92;37.20;;;;;;;11.36;90.58;94699.66;6284991;22;20008;-85
2021/05/02 05:30:01;;;;;;;47.40;36.42;;;;;;;11.38;90.42;94699.13;6284831;22;20085;-85
2021/05/02 05:32:26;;;;;;;48.47;36.03;;;;;;;11.12;91.87;94683.19;6284918;22;20000;-85
2021/05/02 05:34:52;;;;;;;47.60;34.65;;;;;;;11.07;91.93;94670.38;6284122;22;20018;-84
2021/05/02 05:37:17;;;;;;;45.55;35.00;;;;;;;11.25;92.04;94689.56;6283713;22;20011;-86
2021/05/02 05:39:43;;;;;;;47.72;34.75;;;;;;;11.27;92.69;94700.66;6312058;22;20085;-86
2021/05/02 05:42:08;;;;;;;53.03;38.13;;;;;;;10.99;92.79;94654.63;6311914;22;20000;-86
2021/05/02 05:44:34;;;;;;;54.85;39.42;;;;;;;11.41;93.15;94709.03;6312185;22;20004;-86
2021/05/02 05:47:00;;;;;;;52.17;41.50;;;;;;;11.31;92.68;94689.53;6314222;22;20071;-86
2021/05/02 05:49:25;;;;;;;57.33;41.83;;;;;;;11.12;92.92;94654.06;6286910;22;20095;-85
2021/05/02 05:51:53;;;;;;;57.05;39.65;;;;;;;11.30;93.23;94679.91;6286967;22;19995;-85
2021/05/02 05:54:20;;;;;;;51.17;37.10;;;;;;;11.58;93.13;94693.34;6286826;22;20033;-85
2021/05/02 05:56:47;;;;;;;48.20;37.00;;;;;;;11.33;92.27;94649.00;6313825;22;20007;-85
2021/05/02 05:59:12;;;;;;;45.75;37.13;;;;;;;11.35;92.11;94638.38;6286938;22;20003;-86
2021/05/02 06:01:39;;;;;;;48.65;35.67;;;;;;;11.45;92.81;94657.81;6286235;22;20064;-85
2021/05/02 06:04:04;;;;;;;45.42;34.45;;;;;;;11.53;93.41;94662.22;6281056;22;20052;-84
2021/05/02 06:06:35;;;;;;;44.28;33.03;;;;;;;11.50;93.48;94643.47;6286430;22;20362;-84
2021/05/02 06:09:06;;;;;;;45.40;34.22;;;;;;;11.51;93.42;94647.69;6286864;22;20302;-85
2021/05/02 06:11:32;;;;;;;43.50;34.20;;;;;;;11.37;93.49;94613.41;6313892;22;20002;-87
2021/05/02 06:13:58;;;;;;;46.88;35.15;;;;;;;11.70;93.59;94666.81;6313978;22;20010;-86
2021/05/02 06:16:25;;;;;;;44.17;34.50;;;;;;;11.11;93.21;94594.78;6319136;22;20023;-87
2021/05/02 06:18:52;;;;;;;46.53;35.25;;;;;;;11.79;93.42;94686.28;6313829;22;20006;-86
2021/05/02 06:21:19;;;;;;;44.20;34.58;;;;;;;11.80;92.54;94670.72;6286730;22;20078;-87
2021/05/02 06:23:45;;;;;;;39.42;32.22;;;;;;;11.90;92.38;94680.06;6313719;22;20019;-85
2021/05/02 06:26:11;;;;;;;46.45;34.53;;;;;;;11.53;93.76;94639.75;6286653;22;20011;-85
2021/05/02 06:28:37;;;;;;;43.35;33.95;;;;;;;11.64;94.16;94649.81;6286553;22;20003;-87
2021/05/02 06:31:02;;;;;;;43.03;32.92;;;;;;;11.64;93.73;94631.50;6286760;22;20069;-86
2021/05/02 06:33:28;;;;;;;37.78;29.42;;;;;;;11.97;93.01;94665.91;6289317;22;20033;-85
2021/05/02 06:35:54;;;;;;;33.63;28.23;;;;;;;11.96;92.79;94658.25;6286406;22;20003;-85
2021/05/02 06:38:20;;;;;;;35.35;27.52;;;;;;;11.59;92.70;94593.50;6313669;22;20003;-85
2021/05/02 06:40:46;;;;;;;37.13;30.55;;;;;;;11.77;93.49;94601.00;6286286;22;20072;-85
2021/05/02 06:43:11;;;;;;;36.33;29.52;;;;;;;11.95;93.67;94622.16;6286469;22;20003;-86
2021/05/02 06:45:37;;;;;;;36.63;28.52;;;;;;;11.96;93.58;94598.41;6313263;22;20003;-85
2021/05/02 06:48:03;;;;;;;32.90;25.83;;;;;;;12.02;93.04;94596.38;6312409;22;20044;-86
2021/05/02 06:50:28;;;;;;;28.67;22.95;;;;;;;12.29;91.93;94591.91;6313300;22;19999;-86
2021/05/02 06:52:54;;;;;;;16.90;12.80;;;;;;;12.46;93.06;94610.78;6286102;22;20009;-86
2021/05/02 06:55:19;;;;;;;22.15;17.95;;;;;;;12.23;93.99;94591.22;6285898;22;20002;-85
2021/05/02 06:57:45;;;;;;;28.10;22.48;;;;;;;12.22;93.34;94598.66;6286109;22;20059;-86
2021/05/02 07:00:11;;;;;;;27.70;22.33;;;;;;;12.22;94.09;94585.03;6285868;22;20289;-92
2021/05/02 07:02:37;;;;;;;24.50;20.92;;;;;;;12.16;93.19;94568.03;6283860;22;20114;-91
2021/05/02 07:05:02;;;;;;;26.40;20.35;;;;;;;12.26;93.68;94587.50;6286035;22;20034;-91
2021/05/02 07:07:28;;;;;;;23.92;19.30;;;;;;;12.42;93.71;94597.47;6281604;22;20056;-90
2021/05/02 07:09:54;;;;;;;23.13;19.10;;;;;;;12.42;93.31;94570.25;6285992;22;20010;-91
2021/05/02 07:12:21;;;;;;;18.33;15.50;;;;;;;12.79;92.41;94601.50;6285896;22;20006;-92
2021/05/02 07:14:47;;;;;;;18.17;14.57;;;;;;;12.88;92.43;94605.84;6286369;22;20003;-91
2021/05/02 07:17:13;;;;;;;21.10;15.88;;;;;;;12.48;95.21;94546.41;6313312;22;20029;-85
2021/05/02 07:19:39;;;;;;;19.25;16.23;;;;;;;12.67;94.33;94560.03;6313285;22;20014;-87
2021/05/02 07:22:06;;;;;;;20.80;17.30;;;;;;;12.65;94.46;94556.38;6313145;22;20003;-87
2021/05/02 07:24:32;;;;;;;20.65;18.23;;;;;;;13.08;93.98;94608.06;6285917;22;20007;-85
2021/05/02 07:26:59;;;;;;;20.42;16.85;;;;;;;13.16;92.58;94605.50;6285915;22;20048;-86
2021/05/02 07:29:24;;;;;;;20.10;17.77;;;;;;;12.80;94.26;94545.78;6285610;22;20323;-87
2021/05/02 07:31:50;;;;;;;18.27;16.33;;;;;;;13.14;94.49;94578.75;6272302;22;20003;-86
2021/05/02 07:34:15;;;;;;;20.60;17.70;;;;;;;13.04;94.90;94553.13;6282975;22;20013;-86
2021/05/02 07:36:41;;;;;;;21.73;15.85;;;;;;;13.20;93.00;94548.69;6283404;22;20009;-86
2021/05/02 07:39:08;;;;;;;19.25;14.80;;;;;;;13.23;93.14;94550.41;6282643;22;20082;-87
2021/05/02 07:41:44;;;;;;;18.48;9.25;;;;;;;13.22;92.57;94532.59;6284638;22;20007;-87
2021/05/02 07:44:09;;;;;;;10.60;7.40;;;;;;;13.46;90.37;94550.81;6285127;22;20149;-88
2021/05/02 07:46:35;;;;;;;12.60;7.15;;;;;;;13.38;91.13;94526.16;6285771;22;20710;-85
2021/05/02 07:49:00;;;;;;;13.90;5.55;;;;;;;13.43;90.41;94513.69;6284859;22;20090;-87
2021/05/02 07:51:26;;;;;;;10.77;5.43;;;;;;;13.60;91.17;94541.44;6286031;22;19996;-87
2021/05/02 07:53:52;;;;;;;11.60;6.00;;;;;;;13.33;92.18;94502.44;6313003;22;20003;-86
2021/05/02 07:56:18;;;;;;;9.63;5.78;;;;;;;13.56;91.57;94535.53;6286099;22;20673;-86
2021/05/02 07:58:43;;;;;;;9.38;4.97;;;;;;;13.60;90.67;94547.63;6285707;22;20053;-85
2021/05/02 08:01:08;;;;;;;11.07;5.43;;;;;;;13.47;91.55;94533.19;6287514;22;20015;-86
2021/05/02 08:03:34;;;;;;;13.02;5.32;;;;;;;13.60;91.80;94550.34;6311273;22;20008;-85
2021/05/02 08:05:59;;;;;;;10.75;5.30;;;;;;;13.56;91.57;94543.72;6311436;22;20030;-87
2021/05/02 08:08:25;;;;;;;13.88;5.97;;;;;;;13.81;91.67;94574.31;6311257;22;20264;-87
2021/05/02 08:10:50;;;;;;;12.02;5.63;;;;;;;13.62;91.66;94561.47;6310885;22;20022;-85
2021/05/02 08:13:19;;;;;;;11.82;6.13;;;;;;;13.56;92.36;94547.19;6309924;22;19996;-87
2021/05/02 08:15:45;;;;;;;13.43;6.13;;;;;;;13.76;91.94;94588.78;6312550;22;19999;-87
2021/05/02 08:18:11;;;;;;;15.00;7.90;;;;;;;13.86;93.22;94644.44;6312770;22;20010;-88
2021/05/02 08:20:37;;;;;;;9.70;6.63;;;;;;;13.63;91.80;94620.25;6310624;22;20022;-88
2021/05/02 08:23:02;;;;;;;12.82;7.72;;;;;;;13.83;92.90;94646.19;6310976;22;19995;-86
2021/05/02 08:25:28;;;;;;;13.27;6.95;;;;;;;13.88;90.73;94658.28;6311176;22;20030;-87
2021/05/02 08:27:53;;;;;;;11.50;6.18;;;;;;;13.83;89.27;94650.94;6311101;22;20003;-87
2021/05/02 08:30:19;;;;;;;6.10;2.80;;;;;;;13.99;83.42;94663.56;6311339;22;20041;-86
2021/05/02 08:32:44;;;;;;;4.00;1.60;;;;;;;13.89;81.28;94657.03;6311253;22;19995;-86
2021/05/02 08:35:11;;;;;;;1.83;1.20;;;;;;;-145.61;100.00;68426.72;6312298;22;20650;-85
2021/05/02 08:37:36;;;;;;;3.33;1.30;;;;;;;-145.61;100.00;68426.72;6310965;22;20014;-87
2021/05/02 08:40:03;;;;;;;2.00;1.10;;;;;;;-145.61;100.00;68426.72;6312692;22;19995;-89
2021/05/02 08:42:29;;;;;;;2.17;1.33;;;;;;;-145.61;100.00;68426.72;6310894;22;20075;-88
2021/05/02 08:44:55;;;;;;;15.25;1.50;;;;;;;-145.61;100.00;68426.72;6309999;22;20057;-88
2021/05/02 08:47:21;;;;;;;2.33;1.27;;;;;;;13.89;81.28;94657.03;6312221;22;20074;-89
2021/05/02 08:49:46;;;;;;;2.88;1.50;;;;;;;-145.61;100.00;68426.72;6311152;22;20019;-88
2021/05/02 08:52:11;;;;;;;2.03;1.50;;;;;;;14.01;82.28;94707.47;6310964;22;19996;-85
2021/05/02 08:54:37;;;;;;;5.13;2.40;;;;;;;-145.61;100.00;68426.72;6312706;22;20052;-87
2021/05/02 08:57:03;;;;;;;2.63;1.60;;;;;;;-145.61;100.00;68426.72;6311083;22;20011;-86
2021/05/02 08:59:29;;;;;;;2.30;2.10;;;;;;;-145.61;100.00;68426.72;6308376;22;20003;-88
2021/05/02 09:01:58;;;;;;;3.28;2.42;;;;;;;-145.61;100.00;68426.72;6310169;22;20015;-87
2021/05/02 09:04:25;;;;;;;3.15;2.65;;;;;;;-145.61;100.00;68426.72;6310853;22;19999;-86
2021/05/02 09:06:50;;;;;;;4.43;3.25;;;;;;;-145.61;100.00;68426.72;6310795;22;20133;-86
2021/05/02 09:09:16;;;;;;;4.60;2.85;;;;;;;-145.61;100.00;68426.72;6310680;22;20026;-87
2021/05/02 09:11:44;;;;;;;4.13;3.13;;;;;;;-145.61;100.00;68426.72;6310738;22;20379;-88
2021/05/02 09:14:27;;;;;;;7.65;4.15;;;;;;;-145.61;100.00;68426.72;6310840;22;20011;-90
2021/05/02 09:16:58;;;;;;;5.55;4.55;;;;;;;-145.61;100.00;68426.72;6312113;22;20379;-89
2021/05/02 09:19:32;;;;;;;5.90;4.57;;;;;;;-145.61;100.00;68426.72;6310744;22;20034;-87
2021/05/02 09:22:11;;;;;;;5.75;4.72;;;;;;;-145.61;100.00;68426.72;6309897;22;20060;-87
2021/05/02 09:24:37;;;;;;;7.63;5.35;;;;;;;-145.61;100.00;68426.72;6311334;22;20089;-86
2021/05/02 09:27:08;;;;;;;5.30;4.72;;;;;;;-145.61;100.00;68426.72;6310587;22;20395;-86
2021/05/02 09:29:35;;;;;;;6.72;4.65;;;;;;;-145.61;100.00;68426.72;6310402;22;20395;-86
2021/05/02 09:32:02;;;;;;;5.85;4.60;;;;;;;-145.61;100.00;68426.72;6310666;22;20003;-86
2021/05/02 09:34:29;;;;;;;5.55;4.38;;;;;;;-145.61;100.00;68426.72;6310678;22;20003;-88
2021/05/02 09:37:03;;;;;;;5.93;4.63;;;;;;;-145.61;100.00;68426.72;6309853;22;20007;-89
2021/05/02 09:39:36;;;;;;;5.85;4.97;;;;;;;-145.61;100.00;68426.72;6308599;22;20011;-87
2021/05/02 09:42:08;;;;;;;6.25;4.72;;;;;;;-145.61;100.00;68426.72;6309709;22;20018;-87
2021/05/02 09:44:57;;;;;;;7.22;5.00;;;;;;;-145.61;100.00;68426.72;6310350;22;20241;-87
2021/05/02 09:47:34;;;;;;;6.30;5.15;;;;;;;-145.61;100.00;68426.72;6290514;22;20277;-87
2021/05/02 09:50:20;;;;;;;6.63;5.22;;;;;;;-145.61;100.00;68426.72;6310433;22;20046;-86
2021/05/02 09:53:06;;;;;;;6.43;5.40;;;;;;;-145.61;100.00;68426.72;6309115;22;20298;-86
2021/05/02 09:55:40;;;;;;;5.72;4.85;;;;;;;-145.61;100.00;68426.72;6310135;22;20008;-86
2021/05/02 09:58:20;;;;;;;6.35;5.38;;;;;;;-145.61;100.00;68426.72;6309809;22;20101;-86
2021/05/02 10:00:55;;;;;;;7.07;5.63;;;;;;;-145.61;100.00;68426.72;6308690;22;20057;-87
2021/05/02 10:03:25;;;;;;;9.00;5.30;;;;;;;-145.61;100.00;68426.72;6284518;22;20360;-86
2021/05/02 10:05:59;;;;;;;6.85;5.38;;;;;;;-145.61;100.00;68426.72;6284609;22;20014;-86
2021/05/02 10:08:26;;;;;;;6.38;5.28;;;;;;;-145.61;100.00;68426.72;6284758;22;20148;-86
2021/05/02 10:10:57;;;;;;;5.75;5.15;;;;;;;-145.61;100.00;68426.72;6284452;22;20355;-84
2021/05/02 10:13:23;;;;;;;5.63;4.50;;;;;;;-145.61;100.00;68426.72;6307464;22;19999;-87
2021/05/02 10:15:49;;;;;;;5.97;4.80;;;;;;;-145.61;100.00;68426.72;6284656;22;19999;-87
2021/05/02 10:18:15;;;;;;;5.07;4.35;;;;;;;-145.61;100.00;68426.72;6285033;22;19999;-89
2021/05/02 10:20:45;;;;;;;5.30;4.40;;;;;;;-145.61;100.00;68426.72;6284695;22;20403;-86
2021/05/02 10:23:12;;;;;;;5.65;4.88;;;;;;;-145.61;100.00;68426.72;6284296;22;20085;-88
2021/05/02 10:25:38;;;;;;;7.68;4.82;;;;;;;-145.61;100.00;68426.72;6284810;22;20423;-84
2021/05/02 10:28:03;;;;;;;5.30;4.32;;;;;;;14.01;82.28;94707.47;6311580;22;20033;-87
2021/05/02 10:30:32;;;;;;;5.18;4.57;;;;;;;-145.61;100.00;68426.72;6285047;22;20030;-90
2021/05/02 10:33:14;;;;;;;4.00;3.60;;;;;;;14.01;82.28;94707.47;6284289;22;19999;-89
2021/05/02 10:35:54;;;;;;;6.85;4.05;;;;;;;-145.61;100.00;68426.72;6286760;22;20272;-87
2021/05/02 10:38:21;;;;;;;4.67;3.93;;;;;;;-145.61;100.00;68426.72;6286848;22;20006;-89
2021/05/02 10:40:47;;;;;;;4.32;3.63;;;;;;;-145.61;100.00;68426.72;6283851;22;20108;-88
2021/05/02 10:43:30;;;;;;;3.70;3.28;;;;;;;-145.61;100.00;68426.72;6312518;22;20048;-88
2021/05/02 10:45:57;;;;;;;6.82;4.25;;;;;;;-145.61;100.00;68426.72;6286642;22;20382;-89
2021/05/02 10:48:22;;;;;;;5.78;3.75;;;;;;;-145.61;100.00;68426.72;6291117;22;19999;-86
2021/05/02 10:50:55;;;;;;;4.32;3.40;;;;;;;-145.61;100.00;68426.72;6286248;22;20436;-85
2021/05/02 10:53:25;;;;;;;3.50;2.90;;;;;;;-145.61;100.00;68426.72;6286128;22;20087;-85
2021/05/02 10:56:04;;;;;;;3.70;2.90;;;;;;;12.90;67.36;94963.00;6288967;22;20007;-88
2021/05/02 10:58:34;;;;;;;3.40;2.67;;;;;;;12.90;67.36;94963.00;6286321;22;20129;-87
2021/05/02 11:01:04;;;;;;;3.00;2.70;;;;;;;12.90;67.36;94963.00;6286415;22;20148;-86
2021/05/02 11:03:38;;;;;;;3.90;2.80;;;;;;;-145.61;100.00;68426.72;6310796;22;20007;-87
2021/05/02 11:06:12;;;;;;;3.95;3.10;;;;;;;12.90;67.36;94963.00;6310374;22;20015;-87
2021/05/02 11:08:50;;;;;;;5.65;2.97;;;;;;;-145.61;100.00;68426.72;6313097;22;20009;-86
2021/05/02 11:11:36;;;;;;;2.30;2.10;;;;;;;12.74;66.74;94978.94;6313266;22;20075;-86
2021/05/02 11:14:13;;;;;;;2.40;2.00;;;;;;;12.74;66.74;94978.94;6308821;22;20060;-84
2021/05/02 11:16:38;;;;;;;2.13;1.80;;;;;;;12.66;65.41;94991.59;6311066;22;20091;-84
2021/05/02 11:19:06;;;;;;;2.13;1.55;;;;;;;12.56;66.56;94982.25;6311787;22;20039;-85
2021/05/02 11:21:49;;;;;;;2.25;2.00;;;;;;;12.47;68.14;95007.06;6311154;22;20006;-86